Aktuell sind 777 Gäste und keine Mitglieder online

[source: ADDS]
METAR
EDVE 221850Z 27010KT 9999 -RA FEW018 BKN037 OVC047 10/09 Q1017

TAF EDVE 221700Z 2218/2221 24007KT 9999 BKN030 TEMPO 2218/2221 4000 RA BKN012 EDDV 222120Z 24008KT 9999 -RA NSC 10/09 Q1017

TAF EDDV 221700Z 2218/2318 24007KT 9999 BKN030 TEMPO 2218/2221 4000 RA BKN012 BECMG 2302/2304 11004KT BECMG 2310/2312 01006KT TEMPO 2310/2318 4000 RA BKN007 ETHS 222020Z 25009KT 9999 -RA BKN040 BKN080 10/08 Q1017 BLU

ETHC 222020Z 22008KT 9999 -RA FEW007 BKN050 OVC100 10/09 Q1017 BLU

EDVK 222020Z 27007KT 9999 -RA FEW029 SCT034 OVC043 10/07 Q1019

TAF EDVK 222000Z 2221/2303 24005KT 9999 BKN040 TEMPO 2223/2303 4500 RA BKN014
TAF
TAF EDVE 221700Z 2218/2221 24007KT 9999 BKN030 TEMPO 2218/2221 4000 RA BKN012

TAF EDDV 221700Z 2218/2318 24007KT 9999 BKN030 TEMPO 2218/2221 4000 RA BKN012 BECMG 2302/2304 11004KT BECMG 2310/2312 01006KT TEMPO 2310/2318 4000 RA BKN007

TAF EDVK 222000Z 2221/2303 24005KT 9999 BKN040 TEMPO 2223/2303 4500 RA BKN014

SR / SS: 05:03 / 17:17 UTC (EDVE 2018-09-22)
Willkommen im Verein Oliver! Viel Erfolg bei der Ausbildung! +++ Schon wieder ein neues Mitglied! Wilkommen Emmanuel und viel Spaß bei der Ausbildung! +++ Hallo Maximilian, herzlich willkommen in der FFG und viel Erfolg für deine Ausbildung! +++ Wir heißen unser neuestes Mitglied Jörg herzlich willkommen. Viel Spaß in der FFG! +++ Max hat sein erstes Solo absolviert! Herzlichen Glückwunsch! +++ Wir haben einen neuen Fluglehrer! Willkommen Ronald und viel Spaß mit deinen Schülern! +++ Unser Lehrer Thomas hat seine Fluglehrer-Anwärterschaft abgeschlossen und kann jetzt unbeschränkt ausbilden. Herzlichen Glückwunsch! +++ Willkommen Sebastian! Viel Spaß und Erfolg bei der Ausbildung! +++ Wir heißen unser neues Mitglied Horst herzlich willkommen. Viel Spaß in der FFG!

wenig -> mittel -> viel

Professionelle Piloten arbeiten mit Checkliste
Ausdrucken und abarbeiten! Vorbereitete Links helfen bei der Beschaffung der notwendigen Informationen.

Weiterlesen ...

 Zugang zur DFS. Auf dem FFG-Account sind alle erforderlichen Daten unserer Maschinen hinterlegt. Jedes Mitglied hat hier volle Rechte! Zugangsdaten gibt es im Internen Bereich.

Hier gibt es die AIP mit allen erforderlichen Karten die im Abo der FFG liegen zum Download für unsere Mitglieder.

Letztes NOTAM EDVE
von 04.10.2018 0630Z bis 04.10.2018 1130Z
NIENBURG VOR NIE FREQ 116.5 MHZ ON MAINT, DO NO USE, FALSE INDICATIONS POSS.

Letztes NOTAM EDCB
von 28.09.2018 0600Z bis 28.09.2018 1100Z
ASPH RWY 09/27 CLSD.

Letztes NOTAM EDBC
von 03.09.2018 0721Z bis 01.12.2018 2359Z
ILS RWY 26 OUT OF SERVICE.

Letztes NOTAM EDOV
von 24.09.2018 1200Z bis 26.09.2018 2200Z
RWY 08/26 CLSD BTN TWY D AND TWY E, TWY D CLSD, TWY F CLSD BTN TWY T AND TWY E, RWY 08 THR DISPLACED 750M TO THE EAST, DUE TO EVENT. [more]

Letztes NOTAM EDVI
von 21.09.2018 1700Z bis 24.09.2018 0800Z
ASPH RWY 13/31 CLSD DUE TO EVENT. GRASS RWY PPR.

Letztes NOTAM EDDV
von 20.09.2018 1017Z bis 21.11.2018 2359Z
DUE TO OUTAGE OF DLE DVOR/DME AND HW LO THE FLW CHANGES TO APCH PROC OCCUR: ILS/LOC ZULU AND YANKEE RWY 27L: STANDARD APCH PROC FRO [more]

Letztes NOTAM EDVK
von 07.04.2016 0530Z bis PERM
HEL LDG/DEP HEL AREA SOUTH HAVE TO AVOID TO OVERFLY THE CAMP SW OF HELIPORT.) DUPE

          aerodata150     Radio38